createdAt,value
2019-04-10T00:00:08.094Z,9.33
2019-04-10T00:02:37.652Z,8.63
2019-04-10T00:05:07.595Z,8.68
2019-04-10T00:07:37.494Z,7.20
2019-04-10T00:10:07.638Z,6.37
2019-04-10T00:12:36.655Z,6.50
2019-04-10T00:15:05.907Z,7.27
2019-04-10T00:17:35.405Z,7.20
2019-04-10T00:20:04.396Z,7.00
2019-04-10T00:22:34.037Z,8.28
2019-04-10T00:25:04.221Z,8.88
2019-04-10T00:27:33.218Z,8.68
2019-04-10T00:30:02.922Z,8.58
2019-04-10T00:32:32.343Z,8.75
2019-04-10T00:35:02.543Z,8.73
2019-04-10T00:37:32.616Z,9.68
2019-04-10T00:40:03.281Z,10.85
2019-04-10T00:42:32.821Z,23.00
2019-04-10T00:45:02.363Z,28.57
2019-04-10T00:47:31.354Z,40.03
2019-04-10T00:50:00.233Z,90.05
2019-04-10T00:52:30.321Z,118.47
2019-04-10T00:54:59.450Z,124.95
2019-04-10T00:57:29.541Z,99.17
2019-04-10T00:59:58.910Z,65.12
2019-04-10T01:02:28.909Z,39.80
2019-04-10T01:04:58.447Z,37.10
2019-04-10T01:07:36.628Z,27.45
2019-04-10T01:09:57.943Z,20.57
2019-04-10T01:12:27.745Z,11.53
2019-04-10T01:14:56.828Z,9.08
2019-04-10T01:17:26.322Z,8.30
2019-04-10T01:19:56.430Z,7.60
2019-04-10T01:22:25.653Z,7.33
2019-04-10T01:24:54.774Z,7.22
2019-04-10T01:27:23.767Z,7.42
2019-04-10T01:29:53.601Z,7.83
2019-04-10T01:32:22.556Z,7.65
2019-04-10T01:34:51.787Z,7.67
2019-04-10T01:37:20.817Z,6.95
2019-04-10T01:39:50.666Z,7.63
2019-04-10T01:42:20.660Z,7.47
2019-04-10T01:44:49.730Z,7.40
2019-04-10T01:47:19.271Z,7.58
2019-04-10T01:49:48.331Z,7.65
2019-04-10T01:52:17.297Z,7.85
2019-04-10T01:54:47.133Z,7.47
2019-04-10T01:57:16.703Z,7.80
2019-04-10T01:59:45.941Z,7.50
2019-04-10T02:02:26.084Z,7.75
2019-04-10T02:04:55.316Z,8.18
2019-04-10T02:07:26.400Z,8.05
2019-04-10T02:09:56.167Z,7.90
2019-04-10T02:12:26.317Z,8.60
2019-04-10T02:14:56.565Z,8.20
2019-04-10T02:17:26.536Z,8.88
2019-04-10T02:19:56.717Z,8.45
2019-04-10T02:22:26.625Z,8.25
2019-04-10T02:24:55.748Z,8.93
2019-04-10T02:27:24.707Z,8.83
2019-04-10T02:29:53.801Z,8.97
2019-04-10T02:32:24.119Z,8.90
2019-04-10T02:34:55.248Z,8.35
2019-04-10T02:37:25.065Z,9.40
2019-04-10T02:39:59.939Z,9.47
2019-04-10T02:42:26.795Z,9.10
2019-04-10T02:44:57.634Z,8.90
2019-04-10T02:47:26.606Z,10.00
2019-04-10T02:49:56.624Z,9.73
2019-04-10T02:52:26.021Z,9.70
2019-04-10T02:54:55.154Z,11.27
2019-04-10T02:57:25.498Z,10.00
2019-04-10T02:59:55.786Z,9.73
2019-04-10T03:02:26.446Z,10.65
2019-04-10T03:04:57.117Z,10.43
2019-04-10T03:07:28.161Z,12.00
2019-04-10T03:10:08.845Z,11.20
2019-04-10T03:12:28.422Z,10.95
2019-04-10T03:14:59.155Z,12.03
2019-04-10T03:17:28.225Z,12.28
2019-04-10T03:19:58.095Z,12.35
2019-04-10T03:22:27.654Z,12.25
2019-04-10T03:24:56.842Z,14.23
2019-04-10T03:27:26.077Z,13.85
2019-04-10T03:29:55.993Z,14.40
2019-04-10T03:33:02.868Z,15.23
2019-04-10T03:35:32.475Z,15.75
2019-04-10T03:38:01.616Z,14.87
2019-04-10T03:40:31.355Z,15.30
2019-04-10T03:43:01.395Z,15.80
2019-04-10T03:45:30.783Z,15.13
2019-04-10T03:48:00.003Z,14.87
2019-04-10T03:50:29.976Z,13.68
2019-04-10T03:53:00.086Z,14.13
2019-04-10T03:55:29.246Z,13.50
2019-04-10T03:57:58.686Z,13.30
2019-04-10T04:00:27.891Z,12.68
2019-04-10T04:02:57.054Z,13.47
2019-04-10T04:05:26.682Z,18.82
2019-04-10T04:07:57.066Z,28.75
2019-04-10T04:10:26.757Z,20.37
2019-04-10T04:12:57.199Z,16.82
2019-04-10T04:15:26.677Z,14.68
2019-04-10T04:17:56.798Z,14.23
2019-04-10T04:20:26.621Z,12.85
2019-04-10T04:22:55.649Z,12.85
2019-04-10T04:25:24.537Z,12.37
2019-04-10T04:27:53.888Z,12.28
2019-04-10T04:30:23.009Z,9.70
2019-04-10T04:32:52.064Z,7.80
2019-04-10T04:35:22.163Z,8.00
2019-04-10T04:37:52.608Z,8.53
2019-04-10T04:40:26.655Z,11.19
2019-04-10T04:42:57.841Z,14.10
2019-04-10T04:45:27.838Z,13.78
2019-04-10T04:47:57.630Z,14.70
2019-04-10T04:50:27.186Z,13.35
2019-04-10T04:52:56.658Z,10.82
2019-04-10T04:55:26.142Z,10.82
2019-04-10T04:57:55.636Z,11.25
2019-04-10T05:00:25.771Z,10.60
2019-04-10T05:02:55.832Z,11.50
2019-04-10T05:05:25.638Z,11.33
2019-04-10T05:08:00.070Z,11.35
2019-04-10T05:10:26.325Z,10.83
2019-04-10T05:12:56.197Z,10.18
2019-04-10T05:15:25.651Z,10.63
2019-04-10T05:17:55.607Z,10.45
2019-04-10T05:20:29.081Z,9.48
2019-04-10T05:22:56.154Z,9.35
2019-04-10T05:25:25.702Z,9.40
2019-04-10T05:27:55.449Z,10.20
2019-04-10T05:30:25.124Z,11.55
2019-04-10T05:32:55.467Z,11.50
2019-04-10T05:35:25.724Z,11.45
2019-04-10T05:37:56.125Z,11.48
2019-04-10T05:40:25.972Z,9.70
2019-04-10T05:42:57.442Z,9.38
2019-04-10T05:45:27.638Z,10.32
2019-04-10T05:47:57.266Z,10.90
2019-04-10T05:50:26.181Z,12.00
2019-04-10T05:52:55.897Z,10.63
2019-04-10T05:55:26.602Z,9.13
2019-04-10T05:57:56.066Z,9.83
2019-04-10T06:00:25.571Z,10.37
2019-04-10T06:02:56.436Z,21.15
2019-04-10T06:05:26.392Z,13.88
2019-04-10T06:07:57.166Z,11.20
2019-04-10T06:10:26.740Z,9.40
2019-04-10T06:12:56.362Z,8.97
2019-04-10T06:15:26.512Z,10.18
2019-04-10T06:17:56.508Z,11.20
2019-04-10T06:20:26.115Z,9.03
2019-04-10T06:22:55.008Z,9.03
2019-04-10T06:25:25.043Z,10.38
2019-04-10T06:27:54.716Z,8.68
2019-04-10T06:30:24.146Z,8.53
2019-04-10T06:32:53.829Z,7.97
2019-04-10T06:35:24.074Z,7.12
2019-04-10T06:37:54.725Z,6.70
2019-04-10T06:40:25.832Z,6.47
2019-04-10T06:42:56.423Z,9.37
2019-04-10T06:45:26.047Z,9.00
2019-04-10T06:47:55.028Z,7.70
2019-04-10T06:50:24.444Z,7.22
2019-04-10T06:52:53.297Z,6.78
2019-04-10T06:55:23.583Z,6.95
2019-04-10T06:57:57.296Z,6.42
2019-04-10T07:00:25.010Z,6.03
2019-04-10T07:02:54.726Z,6.15
2019-04-10T07:05:24.181Z,6.17
2019-04-10T07:08:01.826Z,6.17
2019-04-10T07:10:29.901Z,5.87
2019-04-10T07:12:55.443Z,6.42
2019-04-10T07:15:25.527Z,22.85
2019-04-10T07:17:55.447Z,6.47
2019-04-10T07:20:26.156Z,15.95
2019-04-10T07:22:56.594Z,7.70
2019-04-10T07:25:26.000Z,6.67
2019-04-10T07:27:54.964Z,7.95
2019-04-10T07:30:26.201Z,5.67
2019-04-10T07:32:55.092Z,4.62
2019-04-10T07:35:24.043Z,5.15
2019-04-10T07:37:55.960Z,5.25
2019-04-10T07:40:23.547Z,4.80
2019-04-10T07:42:52.600Z,5.70
2019-04-10T07:45:26.411Z,5.63
2019-04-10T07:47:52.068Z,5.30
2019-04-10T07:50:21.149Z,6.70
2019-04-10T07:52:50.165Z,5.55
2019-04-10T07:55:19.638Z,5.47
2019-04-10T07:57:50.700Z,5.35
2019-04-10T08:00:20.218Z,4.65
2019-04-10T08:02:49.208Z,4.70
2019-04-10T08:05:18.855Z,4.40
2019-04-10T08:07:48.567Z,5.15
2019-04-10T08:10:18.139Z,5.30
2019-04-10T08:12:53.059Z,4.78
2019-04-10T08:15:19.215Z,4.80
2019-04-10T08:17:50.822Z,4.67
2019-04-10T08:20:19.852Z,4.67
2019-04-10T08:22:48.673Z,4.53
2019-04-10T08:25:18.435Z,4.70
2019-04-10T08:27:48.110Z,4.87
2019-04-10T08:30:17.572Z,4.37
2019-04-10T08:32:56.351Z,4.87
2019-04-10T08:35:17.601Z,5.10
2019-04-10T08:37:46.525Z,4.97
2019-04-10T08:40:16.474Z,5.25
2019-04-10T08:42:46.638Z,4.53
2019-04-10T08:45:16.994Z,4.80
2019-04-10T08:47:46.395Z,5.00
2019-04-10T08:50:15.965Z,4.60
2019-04-10T08:52:46.525Z,4.55
2019-04-10T08:55:17.620Z,4.75
2019-04-10T08:57:47.461Z,5.10
2019-04-10T09:00:17.047Z,4.63
2019-04-10T09:02:46.805Z,5.10
2019-04-10T09:05:17.423Z,5.25
2019-04-10T09:07:46.961Z,4.62
2019-04-10T09:10:16.427Z,4.97
2019-04-10T09:12:47.159Z,4.70
2019-04-10T09:15:18.048Z,4.50
2019-04-10T09:17:47.696Z,4.70
2019-04-10T09:20:18.414Z,4.95
2019-04-10T09:23:10.410Z,4.50
2019-04-10T09:25:19.714Z,4.33
2019-04-10T09:27:49.728Z,4.97
2019-04-10T09:30:20.476Z,4.70
2019-04-10T09:32:50.723Z,4.95
2019-04-10T09:35:20.424Z,4.78
2019-04-10T09:37:50.453Z,4.12
2019-04-10T09:40:20.411Z,4.55
2019-04-10T09:42:50.283Z,4.70
2019-04-10T09:45:20.005Z,4.40
2019-04-10T09:47:50.218Z,4.62
2019-04-10T09:50:19.709Z,4.95
2019-04-10T09:52:50.278Z,4.75
2019-04-10T09:55:20.325Z,4.58
2019-04-10T09:57:49.851Z,4.80
2019-04-10T10:00:20.008Z,4.90
2019-04-10T10:02:50.733Z,5.20
2019-04-10T10:05:20.283Z,5.37
2019-04-10T10:07:50.671Z,5.53
2019-04-10T10:10:20.637Z,5.30
2019-04-10T10:12:50.522Z,5.05
2019-04-10T10:15:20.969Z,4.85
2019-04-10T10:17:50.988Z,5.70
2019-04-10T10:20:21.809Z,5.90
2019-04-10T10:22:51.794Z,4.67
2019-04-10T10:25:21.671Z,4.90
2019-04-10T10:27:51.060Z,5.00
2019-04-10T10:30:20.992Z,4.90
2019-04-10T10:32:51.052Z,5.00
2019-04-10T10:35:20.708Z,5.17
2019-04-10T10:37:50.487Z,5.62
2019-04-10T10:40:20.432Z,4.65
2019-04-10T10:42:50.022Z,5.20
2019-04-10T10:45:20.790Z,5.33
2019-04-10T10:47:50.679Z,5.30
2019-04-10T10:50:22.097Z,5.03
2019-04-10T10:52:52.154Z,5.00
2019-04-10T10:55:21.361Z,4.30
2019-04-10T10:57:51.413Z,3.85
2019-04-10T11:00:23.105Z,4.20
2019-04-10T11:02:53.927Z,4.83
2019-04-10T11:05:23.776Z,4.40
2019-04-10T11:07:53.251Z,4.75
2019-04-10T11:10:25.416Z,4.20
2019-04-10T11:12:53.637Z,4.55
2019-04-10T11:15:23.893Z,4.63
2019-04-10T11:17:53.858Z,4.42
2019-04-10T11:20:24.166Z,4.78
2019-04-10T11:22:53.791Z,4.50
2019-04-10T11:25:23.780Z,4.55
2019-04-10T11:27:53.948Z,4.40
2019-04-10T11:30:24.879Z,4.30
2019-04-10T11:32:54.913Z,3.90
2019-04-10T11:35:24.542Z,3.50
2019-04-10T11:37:56.738Z,3.80
2019-04-10T11:40:26.756Z,3.75
2019-04-10T11:42:57.216Z,4.35
2019-04-10T11:45:28.747Z,4.47
2019-04-10T11:47:58.950Z,4.03
2019-04-10T11:50:30.044Z,4.20
2019-04-10T11:53:02.096Z,5.12
2019-04-10T11:55:42.470Z,4.28
2019-04-10T11:58:03.172Z,4.35
2019-04-10T12:03:12.814Z,4.47
2019-04-10T12:05:42.379Z,4.47
2019-04-10T12:08:50.377Z,4.00
2019-04-10T12:13:16.992Z,4.70
2019-04-10T12:15:45.222Z,4.00
2019-04-10T12:18:14.856Z,4.37
2019-04-10T12:20:45.276Z,4.10
2019-04-10T12:23:14.773Z,4.62
2019-04-10T12:25:45.043Z,4.70
2019-04-10T12:28:14.055Z,4.35
2019-04-10T12:30:43.641Z,5.00
2019-04-10T12:33:13.615Z,4.70
2019-04-10T12:35:43.347Z,4.28
2019-04-10T12:38:13.404Z,4.70
2019-04-10T12:40:42.639Z,4.90
2019-04-10T12:43:12.687Z,4.40
2019-04-10T12:45:41.592Z,6.63
2019-04-10T12:48:10.513Z,7.62
2019-04-10T12:50:39.616Z,5.97
2019-04-10T12:53:09.445Z,5.73
2019-04-10T12:55:39.426Z,6.08
2019-04-10T12:58:13.602Z,5.15
2019-04-10T13:00:42.516Z,4.60
2019-04-10T13:03:11.717Z,5.58
2019-04-10T13:05:41.501Z,5.30
2019-04-10T13:08:20.467Z,4.70
2019-04-10T13:10:43.820Z,5.15
2019-04-10T13:13:13.774Z,4.77
2019-04-10T13:15:43.563Z,4.90
2019-04-10T13:18:14.307Z,5.47
2019-04-10T13:20:44.180Z,5.17
2019-04-10T13:23:15.246Z,4.70
2019-04-10T13:25:55.067Z,5.20
2019-04-10T13:28:15.151Z,4.85
2019-04-10T13:30:51.578Z,4.97
2019-04-10T13:33:16.231Z,4.92
2019-04-10T13:35:46.293Z,4.60
2019-04-10T13:38:25.785Z,5.00
2019-04-10T13:40:46.467Z,5.15
2019-04-10T13:43:15.991Z,5.55
2019-04-10T13:45:45.833Z,4.93
2019-04-10T13:48:14.999Z,4.87
2019-04-10T13:50:43.912Z,4.90
2019-04-10T13:53:13.689Z,5.10
2019-04-10T13:55:42.869Z,4.97
2019-04-10T13:58:12.048Z,5.10
2019-04-10T14:00:43.375Z,5.53
2019-04-10T14:03:14.276Z,5.58
2019-04-10T14:05:43.746Z,5.42
2019-04-10T14:08:12.783Z,5.75
2019-04-10T14:10:41.943Z,5.70
2019-04-10T14:13:11.590Z,6.28
2019-04-10T14:15:40.829Z,6.22
2019-04-10T14:18:12.759Z,5.33
2019-04-10T14:20:42.261Z,5.58
2019-04-10T14:23:18.171Z,5.05
2019-04-10T14:26:22.482Z,6.05
2019-04-10T14:28:53.451Z,5.95
2019-04-10T14:31:26.709Z,5.60
2019-04-10T14:33:58.990Z,5.70
2019-04-10T14:36:29.707Z,5.75
2019-04-10T14:39:10.052Z,6.53
2019-04-10T14:41:31.770Z,6.42
2019-04-10T14:44:01.998Z,5.87
2019-04-10T14:46:31.979Z,6.30
2019-04-10T14:49:02.735Z,6.17
2019-04-10T14:51:32.922Z,6.20
2019-04-10T14:54:03.764Z,6.28
2019-04-10T14:56:34.466Z,5.97
2019-04-10T14:59:03.913Z,6.27
2019-04-10T15:01:34.410Z,7.10
2019-04-10T15:04:04.651Z,6.78
2019-04-10T15:06:34.547Z,7.05
2019-04-10T15:09:06.215Z,6.75
2019-04-10T15:11:35.780Z,6.50
2019-04-10T15:14:05.596Z,6.35
2019-04-10T15:16:35.234Z,7.20
2019-04-10T15:19:04.730Z,6.63
2019-04-10T15:21:34.746Z,6.30
2019-04-10T15:24:04.281Z,6.10
2019-04-10T15:26:33.959Z,5.83
2019-04-10T15:29:03.757Z,6.23
2019-04-10T15:31:33.354Z,3.40
2019-04-10T15:34:03.661Z,7.40
2019-04-10T15:36:34.589Z,6.17
2019-04-10T15:39:06.558Z,5.97
2019-04-10T15:41:36.098Z,5.87
2019-04-10T15:44:05.840Z,5.23
2019-04-10T15:46:35.428Z,6.43
2019-04-10T15:49:05.008Z,6.27
2019-04-10T15:51:34.646Z,6.43
2019-04-10T15:54:05.502Z,5.70
2019-04-10T15:56:36.145Z,6.03
2019-04-10T15:59:06.043Z,6.13
2019-04-10T16:01:35.788Z,6.33
2019-04-10T16:04:05.779Z,7.13
2019-04-10T16:06:35.537Z,7.73
2019-04-10T16:09:07.320Z,6.30
2019-04-10T16:11:45.802Z,6.70
2019-04-10T16:14:20.906Z,5.93
2019-04-10T16:17:04.686Z,5.93
2019-04-10T16:19:42.951Z,5.33
2019-04-10T16:22:36.640Z,5.00
2019-04-10T16:25:34.029Z,7.87
2019-04-10T16:28:06.153Z,8.33
2019-04-10T16:30:37.066Z,7.13
2019-04-10T16:33:07.093Z,6.27
2019-04-10T16:35:38.331Z,7.13
2019-04-10T16:38:08.547Z,6.70
2019-04-10T16:40:38.465Z,28.83
2019-04-10T16:43:08.112Z,23.13
2019-04-10T16:45:38.495Z,11.83
2019-04-10T16:48:08.614Z,14.20
2019-04-10T16:50:38.431Z,8.10
2019-04-10T16:53:09.645Z,6.97
2019-04-10T16:55:39.486Z,8.10
2019-04-10T16:58:09.607Z,7.50
2019-04-10T17:00:39.724Z,6.80
2019-04-10T17:03:09.481Z,8.83
2019-04-10T17:05:39.773Z,9.37
2019-04-10T17:08:09.816Z,7.80
2019-04-10T17:10:40.765Z,9.30
2019-04-10T17:13:10.823Z,11.07
2019-04-10T17:15:40.606Z,11.17
2019-04-10T17:18:10.804Z,8.70
2019-04-10T17:20:42.705Z,9.40
2019-04-10T17:23:12.394Z,10.33
2019-04-10T17:25:42.392Z,9.23
2019-04-10T17:28:12.337Z,9.60
2019-04-10T17:30:42.386Z,9.70
2019-04-10T17:33:13.169Z,10.07
2019-04-10T17:35:43.464Z,14.67
2019-04-10T17:38:14.245Z,16.20
2019-04-10T17:40:48.801Z,15.83
2019-04-10T17:43:15.350Z,13.37
2019-04-10T17:45:44.934Z,14.93
2019-04-10T17:48:15.648Z,18.40
2019-04-10T17:50:45.691Z,18.80
2019-04-10T17:53:17.122Z,15.60
2019-04-10T17:55:47.478Z,19.65
2019-04-10T17:58:21.168Z,17.70
2019-04-10T18:00:53.565Z,19.85
2019-04-10T18:03:23.828Z,21.50
2019-04-10T18:05:53.478Z,27.15
2019-04-10T18:08:26.370Z,24.32
2019-04-10T18:10:56.825Z,19.80
2019-04-10T18:13:26.692Z,20.25
2019-04-10T18:15:57.070Z,24.50
2019-04-10T18:18:27.496Z,20.30
2019-04-10T18:20:58.173Z,22.50
2019-04-10T18:23:28.271Z,23.57
2019-04-10T18:25:58.411Z,31.42
2019-04-10T18:28:30.609Z,22.60
2019-04-10T18:31:00.712Z,22.93
2019-04-10T18:33:30.882Z,21.57
2019-04-10T18:36:01.114Z,20.48
2019-04-10T18:38:30.640Z,25.10
2019-04-10T18:41:03.753Z,22.10
2019-04-10T18:43:31.937Z,23.60
2019-04-10T18:46:08.675Z,26.45
2019-04-10T18:48:34.559Z,28.27
2019-04-10T18:51:06.639Z,28.77
2019-04-10T18:53:35.418Z,21.87
2019-04-10T18:56:05.186Z,19.55
2019-04-10T18:58:40.410Z,16.87
2019-04-10T19:01:28.756Z,16.85
2019-04-10T19:04:16.237Z,18.00
2019-04-10T19:06:58.757Z,19.32
2019-04-10T19:09:30.836Z,19.32
2019-04-10T19:12:00.673Z,21.15
2019-04-10T19:14:30.708Z,21.20
2019-04-10T19:17:00.575Z,30.92
2019-04-10T19:19:30.817Z,35.17
2019-04-10T19:22:00.413Z,38.03
2019-04-10T19:24:30.539Z,19.93
2019-04-10T19:27:00.337Z,24.60
2019-04-10T19:29:29.935Z,23.83
2019-04-10T19:32:02.175Z,21.07
2019-04-10T19:34:33.809Z,19.42
2019-04-10T19:37:04.106Z,18.67
2019-04-10T19:39:34.239Z,20.80
2019-04-10T19:42:04.971Z,21.75
2019-04-10T19:44:35.225Z,23.18
2019-04-10T19:47:06.099Z,22.87
2019-04-10T19:49:37.003Z,21.95
2019-04-10T19:52:08.510Z,22.02
2019-04-10T19:54:38.775Z,28.73
2019-04-10T19:57:08.970Z,27.30
2019-04-10T19:59:39.854Z,26.10
2019-04-10T20:02:10.790Z,22.95
2019-04-10T20:04:40.973Z,24.37
2019-04-10T20:07:11.206Z,23.73
2019-04-10T20:09:41.044Z,23.80
2019-04-10T20:12:11.124Z,21.62
2019-04-10T20:14:40.938Z,22.07
2019-04-10T20:17:11.511Z,21.80
2019-04-10T20:19:42.539Z,21.42
2019-04-10T20:22:12.711Z,19.67
2019-04-10T20:24:43.127Z,20.10
2019-04-10T20:27:14.061Z,21.25
2019-04-10T20:29:45.238Z,22.65
2019-04-10T20:32:15.854Z,21.42
2019-04-10T20:34:45.758Z,21.20
2019-04-10T20:37:15.513Z,20.77
2019-04-10T20:39:45.478Z,21.40
2019-04-10T20:42:16.138Z,21.68
2019-04-10T20:44:47.072Z,21.55
2019-04-10T20:47:17.228Z,21.33
2019-04-10T20:49:47.061Z,20.45
2019-04-10T20:52:17.930Z,20.27
2019-04-10T20:54:48.879Z,19.52
2019-04-10T20:57:19.411Z,17.77
2019-04-10T20:59:49.646Z,18.23
2019-04-10T21:02:20.242Z,18.17
2019-04-10T21:04:56.630Z,19.20
2019-04-10T21:07:21.991Z,20.08
2019-04-10T21:09:52.386Z,16.70
2019-04-10T21:12:22.288Z,15.67
2019-04-10T21:14:52.554Z,15.07
2019-04-10T21:17:22.683Z,15.20
2019-04-10T21:19:51.853Z,15.20
2019-04-10T21:22:22.403Z,13.50
2019-04-10T21:24:52.394Z,18.17
2019-04-10T21:27:22.816Z,18.32
2019-04-10T21:30:17.845Z,24.98
2019-04-10T21:33:07.863Z,22.30
2019-04-10T21:35:38.246Z,31.25
2019-04-10T21:38:08.174Z,24.12
2019-04-10T21:40:38.804Z,14.35
2019-04-10T21:43:08.820Z,15.03
2019-04-10T21:45:39.158Z,15.58
2019-04-10T21:48:09.193Z,22.70
2019-04-10T21:50:39.792Z,22.15
2019-04-10T21:53:10.163Z,16.10
2019-04-10T21:55:39.909Z,13.45
2019-04-10T21:58:10.214Z,13.08
2019-04-10T22:00:59.052Z,12.80
2019-04-10T22:03:29.598Z,13.18
2019-04-10T22:06:30.372Z,12.30
2019-04-10T22:09:28.603Z,11.95
2019-04-10T22:12:01.493Z,12.70
2019-04-10T22:14:31.238Z,13.18
2019-04-10T22:17:00.915Z,12.90
2019-04-10T22:19:30.614Z,13.18
2019-04-10T22:22:00.479Z,13.53
2019-04-10T22:24:30.397Z,13.10
2019-04-10T22:27:00.873Z,13.60
2019-04-10T22:29:30.616Z,14.35
2019-04-10T22:32:00.602Z,14.60
2019-04-10T22:34:30.335Z,13.68
2019-04-10T22:37:00.224Z,14.25
2019-04-10T22:39:30.121Z,13.85
2019-04-10T22:41:59.783Z,13.90
2019-04-10T22:44:37.525Z,14.95
2019-04-10T22:47:00.945Z,14.58
2019-04-10T22:49:31.126Z,14.40
2019-04-10T22:52:00.905Z,14.95
2019-04-10T22:54:30.695Z,15.32
2019-04-10T22:57:00.661Z,15.20
2019-04-10T22:59:30.560Z,16.27
2019-04-10T23:02:07.209Z,15.32
2019-04-10T23:04:32.805Z,16.07
2019-04-10T23:07:03.846Z,17.35
2019-04-10T23:09:33.740Z,17.12
2019-04-10T23:12:03.873Z,17.05
2019-04-10T23:14:34.440Z,16.52
2019-04-10T23:17:04.285Z,17.27
2019-04-10T23:19:34.225Z,17.95
2019-04-10T23:22:05.394Z,18.12
2019-04-10T23:24:35.917Z,17.70
2019-04-10T23:27:05.950Z,17.80
2019-04-10T23:29:36.230Z,17.92
2019-04-10T23:32:05.905Z,16.57
2019-04-10T23:34:36.706Z,17.27
2019-04-10T23:37:06.807Z,18.30
2019-04-10T23:39:36.773Z,16.80
2019-04-10T23:42:07.491Z,17.40
2019-04-10T23:44:37.491Z,17.23
2019-04-10T23:47:07.531Z,17.75
2019-04-10T23:49:37.466Z,17.92
2019-04-10T23:52:07.635Z,18.48
2019-04-10T23:54:37.550Z,18.00
2019-04-10T23:57:07.395Z,18.23
2019-04-10T23:59:37.495Z,18.80
